createdAt,value
2017-10-06T00:00:17.084Z,11.27
2017-10-06T00:02:44.487Z,11.17
2017-10-06T00:05:11.907Z,11.90
2017-10-06T00:07:39.307Z,10.83
2017-10-06T00:10:06.716Z,11.60
2017-10-06T00:12:34.136Z,12.43
2017-10-06T00:15:01.542Z,11.93
2017-10-06T00:17:28.935Z,11.20
2017-10-06T00:19:56.364Z,12.27
2017-10-06T00:22:23.755Z,11.60
2017-10-06T00:24:51.160Z,11.43
2017-10-06T00:27:18.571Z,11.70
2017-10-06T00:29:45.971Z,11.83
2017-10-06T00:32:13.367Z,12.40
2017-10-06T00:34:40.927Z,11.13
2017-10-06T00:37:08.331Z,11.07
2017-10-06T00:39:35.735Z,11.80
2017-10-06T00:42:03.166Z,10.93
2017-10-06T00:44:30.559Z,11.30
2017-10-06T00:46:57.964Z,12.07
2017-10-06T00:49:25.384Z,12.23
2017-10-06T00:51:52.787Z,11.20
2017-10-06T00:54:20.191Z,11.07
2017-10-06T00:56:47.607Z,10.90
2017-10-06T00:59:15.012Z,12.80
2017-10-06T01:01:42.420Z,12.53
2017-10-06T01:04:09.984Z,12.13
2017-10-06T01:06:37.391Z,11.50
2017-10-06T01:09:04.791Z,11.97
2017-10-06T01:11:32.210Z,12.37
2017-10-06T01:13:59.611Z,12.70
2017-10-06T01:16:27.023Z,12.30
2017-10-06T01:18:54.435Z,12.10
2017-10-06T01:21:21.844Z,11.60
2017-10-06T01:23:49.235Z,11.87
2017-10-06T01:26:16.657Z,13.03
2017-10-06T01:28:44.067Z,12.80
2017-10-06T01:31:11.467Z,13.30
2017-10-06T01:33:38.885Z,12.27
2017-10-06T01:36:06.275Z,12.47
2017-10-06T01:38:33.679Z,12.33
2017-10-06T01:41:01.111Z,12.30
2017-10-06T01:43:28.511Z,12.23
2017-10-06T01:45:55.911Z,12.00
2017-10-06T01:48:23.335Z,11.43
2017-10-06T01:50:50.740Z,13.33
2017-10-06T01:53:18.139Z,11.80
2017-10-06T01:55:45.555Z,12.13
2017-10-06T01:58:12.955Z,13.20
2017-10-06T02:00:40.359Z,12.43
2017-10-06T02:03:07.780Z,12.30
2017-10-06T02:05:35.177Z,11.87
2017-10-06T02:08:02.575Z,12.90
2017-10-06T02:10:29.995Z,11.40
2017-10-06T02:12:57.408Z,12.07
2017-10-06T02:15:24.811Z,11.93
2017-10-06T02:17:52.228Z,12.67
2017-10-06T02:20:19.640Z,11.70
2017-10-06T02:22:47.044Z,14.63
2017-10-06T02:25:14.455Z,12.07
2017-10-06T02:27:41.855Z,11.90
2017-10-06T02:30:09.263Z,11.57
2017-10-06T02:32:36.675Z,11.63
2017-10-06T02:35:04.078Z,15.30
2017-10-06T02:37:31.479Z,11.30
2017-10-06T02:39:58.896Z,11.77
2017-10-06T02:42:26.287Z,12.13
2017-10-06T02:44:53.688Z,11.43
2017-10-06T02:47:21.109Z,11.80
2017-10-06T02:49:48.514Z,11.70
2017-10-06T02:52:15.912Z,11.23
2017-10-06T02:54:43.326Z,11.47
2017-10-06T02:57:10.731Z,11.87
2017-10-06T02:59:38.127Z,12.73
2017-10-06T03:02:05.547Z,13.67
2017-10-06T03:04:32.952Z,14.90
2017-10-06T03:07:00.355Z,11.27
2017-10-06T03:09:27.913Z,10.80
2017-10-06T03:11:55.311Z,11.73
2017-10-06T03:14:22.703Z,11.50
2017-10-06T03:16:50.119Z,11.93
2017-10-06T03:19:17.518Z,11.23
2017-10-06T03:21:44.924Z,11.67
2017-10-06T03:24:12.349Z,11.03
2017-10-06T03:26:39.743Z,11.73
2017-10-06T03:29:07.153Z,11.10
2017-10-06T03:31:34.571Z,13.10
2017-10-06T03:34:01.972Z,10.80
2017-10-06T03:36:29.371Z,12.80
2017-10-06T03:38:56.783Z,10.63
2017-10-06T03:41:24.176Z,13.17
2017-10-06T03:43:51.584Z,12.93
2017-10-06T03:46:18.999Z,10.33
2017-10-06T03:48:46.395Z,11.03
2017-10-06T03:51:13.800Z,10.03
2017-10-06T03:53:41.216Z,11.20
2017-10-06T03:56:08.907Z,9.87
2017-10-06T03:58:36.295Z,10.50
2017-10-06T04:01:03.705Z,10.57
2017-10-06T04:03:31.107Z,11.63
2017-10-06T04:05:58.508Z,10.20
2017-10-06T04:08:25.919Z,9.83
2017-10-06T04:10:53.320Z,10.50
2017-10-06T04:13:20.708Z,9.60
2017-10-06T04:15:48.114Z,10.57
2017-10-06T04:18:15.523Z,11.57
2017-10-06T04:20:42.916Z,10.50
2017-10-06T04:23:10.327Z,9.03
2017-10-06T04:25:37.725Z,9.70
2017-10-06T04:28:05.131Z,13.90
2017-10-06T04:30:32.561Z,11.20
2017-10-06T04:32:59.948Z,8.97
2017-10-06T04:35:27.356Z,10.83
2017-10-06T04:37:54.755Z,10.47
2017-10-06T04:40:22.161Z,10.20
2017-10-06T04:42:49.555Z,10.60
2017-10-06T04:45:16.972Z,10.83
2017-10-06T04:47:44.372Z,12.40
2017-10-06T04:50:11.771Z,11.50
2017-10-06T04:52:39.183Z,12.57
2017-10-06T04:55:06.586Z,11.67
2017-10-06T04:57:33.994Z,12.00
2017-10-06T05:00:01.403Z,12.50
2017-10-06T05:02:28.857Z,12.00
2017-10-06T05:04:56.256Z,13.03
2017-10-06T05:07:23.671Z,12.30
2017-10-06T05:09:51.075Z,14.17
2017-10-06T05:12:18.484Z,13.00
2017-10-06T05:14:45.903Z,12.83
2017-10-06T05:17:13.310Z,13.40
2017-10-06T05:19:40.711Z,14.00
2017-10-06T05:22:08.128Z,12.73
2017-10-06T05:24:35.538Z,13.47
2017-10-06T05:27:02.936Z,13.23
2017-10-06T05:29:30.352Z,13.03
2017-10-06T05:31:57.755Z,12.33
2017-10-06T05:34:25.202Z,13.70
2017-10-06T05:36:52.616Z,12.80
2017-10-06T05:39:20.020Z,12.40
2017-10-06T05:41:47.424Z,13.10
2017-10-06T05:44:14.835Z,12.87
2017-10-06T05:46:42.236Z,12.60
2017-10-06T05:49:09.644Z,13.43
2017-10-06T05:51:37.078Z,13.40
2017-10-06T05:54:04.488Z,12.90
2017-10-06T05:56:31.891Z,13.63
2017-10-06T05:58:59.307Z,12.67
2017-10-06T06:01:26.711Z,16.23
2017-10-06T06:03:54.119Z,13.47
2017-10-06T06:06:21.535Z,13.53
2017-10-06T06:08:48.953Z,12.50
2017-10-06T06:11:16.359Z,13.53
2017-10-06T06:13:43.779Z,14.07
2017-10-06T06:16:11.179Z,14.80
2017-10-06T06:18:38.588Z,15.27
2017-10-06T06:21:06.018Z,14.33
2017-10-06T06:23:33.415Z,14.83
2017-10-06T06:26:00.819Z,14.90
2017-10-06T06:28:28.240Z,14.67
2017-10-06T06:30:55.644Z,14.17
2017-10-06T06:33:23.043Z,14.27
2017-10-06T06:35:50.601Z,12.93
2017-10-06T06:38:18.000Z,12.33
2017-10-06T06:40:45.403Z,12.70
2017-10-06T06:43:12.814Z,12.57
2017-10-06T06:45:40.216Z,13.67
2017-10-06T06:48:07.619Z,12.77
2017-10-06T06:50:35.045Z,18.20
2017-10-06T06:53:02.455Z,13.77
2017-10-06T06:55:29.855Z,13.50
2017-10-06T06:57:57.280Z,17.07
2017-10-06T07:00:24.675Z,12.90
2017-10-06T07:02:52.075Z,12.70
2017-10-06T07:05:19.490Z,14.80
2017-10-06T07:07:46.884Z,12.63
2017-10-06T07:10:14.293Z,15.47
2017-10-06T07:12:41.732Z,13.37
2017-10-06T07:15:09.123Z,13.40
2017-10-06T07:17:36.522Z,14.33
2017-10-06T07:20:03.938Z,12.73
2017-10-06T07:22:31.339Z,12.40
2017-10-06T07:24:58.735Z,13.57
2017-10-06T07:27:26.151Z,12.87
2017-10-06T07:29:53.551Z,14.23
2017-10-06T07:32:20.951Z,14.40
2017-10-06T07:34:48.362Z,13.93
2017-10-06T07:37:15.766Z,13.40
2017-10-06T07:39:43.159Z,14.20
2017-10-06T07:42:10.571Z,12.53
2017-10-06T07:44:37.971Z,13.27
2017-10-06T07:47:05.375Z,12.80
2017-10-06T07:49:32.798Z,14.27
2017-10-06T07:52:00.199Z,11.97
2017-10-06T07:54:27.601Z,13.20
2017-10-06T07:56:55.015Z,11.60
2017-10-06T07:59:22.417Z,15.53
2017-10-06T08:01:49.815Z,11.93
2017-10-06T08:04:17.222Z,10.30
2017-10-06T08:06:44.619Z,10.63
2017-10-06T08:09:12.015Z,9.60
2017-10-06T08:11:39.423Z,10.30
2017-10-06T08:14:06.817Z,9.63
2017-10-06T08:16:34.211Z,9.93
2017-10-06T08:19:01.619Z,9.83
2017-10-06T08:21:29.045Z,11.20
2017-10-06T08:23:56.443Z,10.93
2017-10-06T08:26:23.851Z,11.17
2017-10-06T08:28:51.272Z,10.67
2017-10-06T08:31:18.679Z,11.33
2017-10-06T08:33:46.100Z,11.13
2017-10-06T08:36:13.487Z,9.60
2017-10-06T08:38:40.879Z,9.97
2017-10-06T08:41:08.284Z,9.87
2017-10-06T08:43:35.682Z,11.67
2017-10-06T08:46:03.076Z,10.67
2017-10-06T08:48:30.495Z,10.97
2017-10-06T08:50:57.887Z,10.03
2017-10-06T08:53:25.276Z,13.10
2017-10-06T08:55:52.687Z,9.97
2017-10-06T08:58:20.085Z,10.53
2017-10-06T09:00:47.479Z,10.67
2017-10-06T09:03:14.887Z,9.80
2017-10-06T09:05:42.295Z,9.40
2017-10-06T09:08:09.695Z,11.30
2017-10-06T09:10:37.119Z,15.30
2017-10-06T09:13:04.515Z,13.23
2017-10-06T09:15:31.912Z,14.60
2017-10-06T09:17:59.347Z,16.70
2017-10-06T09:20:26.747Z,10.93
2017-10-06T09:22:54.147Z,11.63
2017-10-06T09:25:21.572Z,11.67
2017-10-06T09:27:48.972Z,11.90
2017-10-06T09:30:16.376Z,14.33
2017-10-06T09:32:43.798Z,12.73
2017-10-06T09:35:11.204Z,13.27
2017-10-06T09:37:38.595Z,10.43
2017-10-06T09:40:06.011Z,11.67
2017-10-06T09:42:33.407Z,11.67
2017-10-06T09:45:00.807Z,11.13
2017-10-06T09:47:28.225Z,11.67
2017-10-06T09:49:55.634Z,11.33
2017-10-06T09:52:23.032Z,10.30
2017-10-06T09:54:50.451Z,11.47
2017-10-06T09:57:17.851Z,13.00
2017-10-06T09:59:45.264Z,10.13
2017-10-06T10:02:12.664Z,9.67
2017-10-06T10:04:40.067Z,10.77
2017-10-06T10:07:07.468Z,10.60
2017-10-06T10:09:34.879Z,10.53
2017-10-06T10:12:02.301Z,10.10
2017-10-06T10:14:29.698Z,10.17
2017-10-06T10:16:57.111Z,10.67
2017-10-06T10:19:24.516Z,9.37
2017-10-06T10:21:51.915Z,8.50
2017-10-06T10:24:19.319Z,9.27
2017-10-06T10:26:46.719Z,10.23
2017-10-06T10:29:14.115Z,12.80
2017-10-06T10:31:41.527Z,10.23
2017-10-06T10:34:08.922Z,9.70
2017-10-06T10:36:36.312Z,9.23
2017-10-06T10:39:03.716Z,9.20
2017-10-06T10:41:31.115Z,9.93
2017-10-06T10:43:58.515Z,11.47
2017-10-06T10:46:25.927Z,10.07
2017-10-06T10:48:53.329Z,9.53
2017-10-06T10:51:20.719Z,9.63
2017-10-06T10:53:48.123Z,9.97
2017-10-06T10:56:15.516Z,9.40
2017-10-06T10:58:42.912Z,10.07
2017-10-06T11:01:10.331Z,9.93
2017-10-06T11:03:37.730Z,8.77
2017-10-06T11:06:05.124Z,12.00
2017-10-06T11:08:32.523Z,9.00
2017-10-06T11:10:59.915Z,8.77
2017-10-06T11:13:27.306Z,9.70
2017-10-06T11:15:54.715Z,8.33
2017-10-06T11:18:22.103Z,10.20
2017-10-06T11:20:49.506Z,13.77
2017-10-06T11:23:16.919Z,12.93
2017-10-06T11:25:44.341Z,9.43
2017-10-06T11:28:11.747Z,10.80
2017-10-06T11:30:39.150Z,8.47
2017-10-06T11:33:06.575Z,8.60
2017-10-06T11:35:33.981Z,8.80
2017-10-06T11:38:01.405Z,9.40
2017-10-06T11:40:28.805Z,8.97
2017-10-06T11:42:56.207Z,8.83
2017-10-06T11:45:23.619Z,11.87
2017-10-06T11:47:51.021Z,9.13
2017-10-06T11:50:18.427Z,7.50
2017-10-06T11:52:45.839Z,9.10
2017-10-06T11:55:13.235Z,7.77
2017-10-06T11:57:40.641Z,9.10
2017-10-06T12:00:08.098Z,8.13
2017-10-06T12:02:35.479Z,8.37
2017-10-06T12:05:02.880Z,10.67
2017-10-06T12:07:30.295Z,8.50
2017-10-06T12:09:57.706Z,8.10
2017-10-06T12:12:25.124Z,8.37
2017-10-06T12:14:52.526Z,8.47
2017-10-06T12:17:19.940Z,8.73
2017-10-06T12:19:47.327Z,10.40
2017-10-06T12:22:14.727Z,8.90
2017-10-06T12:24:42.130Z,7.57
2017-10-06T12:27:09.525Z,8.33
2017-10-06T12:29:36.938Z,7.80
2017-10-06T12:32:04.346Z,10.13
2017-10-06T12:34:31.735Z,8.63
2017-10-06T12:36:59.171Z,13.90
2017-10-06T12:39:26.571Z,9.00
2017-10-06T12:41:54.713Z,8.37
2017-10-06T12:44:22.131Z,8.60
2017-10-06T12:46:49.568Z,10.30
2017-10-06T12:49:17.435Z,8.50
2017-10-06T12:51:44.844Z,9.20
2017-10-06T12:54:12.256Z,9.30
2017-10-06T12:56:39.648Z,8.37
2017-10-06T12:59:07.051Z,8.37
2017-10-06T13:01:34.451Z,10.53
2017-10-06T13:04:01.868Z,8.80
2017-10-06T13:06:29.668Z,8.83
2017-10-06T13:08:57.091Z,10.03
2017-10-06T13:11:24.590Z,11.53
2017-10-06T13:13:53.206Z,10.53
2017-10-06T13:16:21.184Z,9.40
2017-10-06T13:18:48.579Z,10.70
2017-10-06T13:21:15.986Z,9.90
2017-10-06T13:23:44.073Z,10.23
2017-10-06T13:26:13.311Z,13.23
2017-10-06T13:28:40.743Z,10.30
2017-10-06T13:31:08.147Z,10.53
2017-10-06T13:33:35.555Z,11.00
2017-10-06T13:36:02.978Z,10.70
2017-10-06T13:38:30.377Z,13.67
2017-10-06T13:40:57.776Z,10.77
2017-10-06T13:43:25.439Z,10.20
2017-10-06T13:45:52.823Z,9.87
2017-10-06T13:48:20.251Z,17.20
2017-10-06T13:50:47.655Z,12.13
2017-10-06T13:53:15.887Z,11.03
2017-10-06T13:55:44.388Z,14.57
2017-10-06T13:58:12.250Z,11.10
2017-10-06T14:00:39.711Z,9.30
2017-10-06T14:03:07.110Z,9.90
2017-10-06T14:05:34.951Z,9.07
2017-10-06T14:08:02.343Z,10.50
2017-10-06T14:10:29.798Z,10.13
2017-10-06T14:12:57.211Z,10.57
2017-10-06T14:15:24.607Z,11.40
2017-10-06T14:17:52.493Z,15.33
2017-10-06T14:20:19.947Z,9.33
2017-10-06T14:22:48.021Z,9.40
2017-10-06T14:25:15.472Z,9.00
2017-10-06T14:27:42.887Z,11.13
2017-10-06T14:30:10.283Z,8.27
2017-10-06T14:32:37.691Z,8.60
2017-10-06T14:35:05.100Z,8.50
2017-10-06T14:37:32.515Z,7.80
2017-10-06T14:39:59.915Z,8.93
2017-10-06T14:42:27.319Z,12.33
2017-10-06T14:44:54.719Z,8.57
2017-10-06T14:47:22.119Z,15.23
2017-10-06T14:49:49.553Z,11.27
2017-10-06T14:52:16.968Z,16.00
2017-10-06T14:54:44.364Z,11.50
2017-10-06T14:57:11.784Z,13.27
2017-10-06T14:59:39.183Z,13.20
2017-10-06T15:02:06.699Z,15.20
2017-10-06T15:04:35.651Z,14.20
2017-10-06T15:07:03.071Z,16.67
2017-10-06T15:09:30.489Z,18.33
2017-10-06T15:11:57.923Z,14.63
2017-10-06T15:14:25.334Z,14.13
2017-10-06T15:16:52.740Z,22.20
2017-10-06T15:19:21.441Z,18.83
2017-10-06T15:21:48.855Z,14.27
2017-10-06T15:24:16.261Z,14.17
2017-10-06T15:26:43.679Z,14.40
2017-10-06T15:29:11.087Z,14.17
2017-10-06T15:31:39.452Z,13.87
2017-10-06T15:34:06.888Z,13.33
2017-10-06T15:36:34.296Z,12.67
2017-10-06T15:39:02.135Z,13.50
2017-10-06T15:41:29.564Z,13.47
2017-10-06T15:43:56.959Z,13.20
2017-10-06T15:46:24.411Z,13.33
2017-10-06T15:48:51.843Z,15.27
2017-10-06T15:51:19.244Z,14.67
2017-10-06T15:53:46.659Z,14.10
2017-10-06T15:56:14.090Z,13.43
2017-10-06T15:58:41.496Z,14.17
2017-10-06T16:01:09.019Z,13.23
2017-10-06T16:03:36.459Z,13.00
2017-10-06T16:06:04.475Z,13.47
2017-10-06T16:08:40.218Z,13.40
2017-10-06T16:11:07.616Z,14.30
2017-10-06T16:13:35.012Z,15.17
2017-10-06T16:16:02.995Z,15.40
2017-10-06T16:18:31.124Z,14.73
2017-10-06T16:20:58.523Z,15.57
2017-10-06T16:23:27.073Z,15.43
2017-10-06T16:25:54.487Z,16.20
2017-10-06T16:28:21.888Z,16.40
2017-10-06T16:30:49.324Z,17.13
2017-10-06T16:33:16.729Z,17.20
2017-10-06T16:35:44.128Z,17.07
2017-10-06T16:38:11.543Z,16.60
2017-10-06T16:40:39.031Z,15.70
2017-10-06T16:43:06.423Z,14.63
2017-10-06T16:45:33.847Z,15.93
2017-10-06T16:48:01.257Z,14.60
2017-10-06T16:50:28.663Z,15.20
2017-10-06T16:52:56.106Z,13.73
2017-10-06T16:55:23.523Z,13.37
2017-10-06T16:57:50.925Z,13.87
2017-10-06T17:00:18.343Z,12.67
2017-10-06T17:02:45.746Z,12.77
2017-10-06T17:05:13.223Z,12.50
2017-10-06T17:07:40.636Z,13.63
2017-10-06T17:10:08.032Z,15.53
2017-10-06T17:12:35.432Z,11.80
2017-10-06T17:15:02.875Z,12.23
2017-10-06T17:17:30.282Z,14.87
2017-10-06T17:19:57.732Z,11.67
2017-10-06T17:22:25.135Z,14.07
2017-10-06T17:24:52.560Z,13.70
2017-10-06T17:27:19.986Z,12.30
2017-10-06T17:29:47.403Z,13.77
2017-10-06T17:32:14.838Z,13.90
2017-10-06T17:34:42.260Z,12.17
2017-10-06T17:37:10.667Z,15.23
2017-10-06T17:39:38.372Z,13.40
2017-10-06T17:42:05.771Z,12.37
2017-10-06T17:44:34.647Z,13.10
2017-10-06T17:47:02.055Z,12.50
2017-10-06T17:49:29.483Z,13.63
2017-10-06T17:51:57.738Z,12.17
2017-10-06T17:54:25.152Z,11.83
2017-10-06T17:56:52.568Z,11.90
2017-10-06T17:59:20.113Z,12.90
2017-10-06T18:01:48.223Z,15.37
2017-10-06T18:04:15.651Z,13.03
2017-10-06T18:06:43.839Z,14.30
2017-10-06T18:09:11.256Z,12.90
2017-10-06T18:11:38.732Z,12.30
2017-10-06T18:14:06.623Z,12.60
2017-10-06T18:16:35.188Z,12.33
2017-10-06T18:19:02.609Z,13.43
2017-10-06T18:21:30.074Z,12.10
2017-10-06T18:23:57.467Z,13.27
2017-10-06T18:26:24.871Z,13.80
2017-10-06T18:28:52.287Z,13.30
2017-10-06T18:31:19.747Z,18.10
2017-10-06T18:33:47.159Z,18.90
2017-10-06T18:36:14.612Z,18.63
2017-10-06T18:38:42.003Z,20.87
2017-10-06T18:41:09.447Z,14.23
2017-10-06T18:43:36.847Z,14.00
2017-10-06T18:46:04.247Z,18.80
2017-10-06T18:48:31.655Z,15.60
2017-10-06T18:50:59.074Z,17.30
2017-10-06T18:53:26.480Z,21.67
2017-10-06T18:55:53.891Z,14.93
2017-10-06T18:58:21.340Z,14.10
2017-10-06T19:00:48.748Z,13.77
2017-10-06T19:03:16.127Z,16.03
2017-10-06T19:05:43.656Z,14.57
2017-10-06T19:08:11.059Z,13.93
2017-10-06T19:10:38.475Z,14.20
2017-10-06T19:13:05.891Z,17.93
2017-10-06T19:15:33.307Z,15.37
2017-10-06T19:18:00.703Z,14.73
2017-10-06T19:20:28.135Z,13.93
2017-10-06T19:22:55.543Z,22.50
2017-10-06T19:25:22.955Z,14.83
2017-10-06T19:27:50.379Z,21.47
2017-10-06T19:30:17.784Z,13.83
2017-10-06T19:32:45.227Z,13.67
2017-10-06T19:35:12.640Z,17.57
2017-10-06T19:37:40.055Z,13.80
2017-10-06T19:40:07.490Z,15.97
2017-10-06T19:42:34.903Z,15.50
2017-10-06T19:45:02.323Z,15.77
2017-10-06T19:47:29.711Z,15.50
2017-10-06T19:49:57.155Z,14.90
2017-10-06T19:52:24.568Z,16.00
2017-10-06T19:54:51.975Z,21.60
2017-10-06T19:57:19.386Z,15.47
2017-10-06T19:59:46.795Z,14.87
2017-10-06T20:02:14.203Z,14.77
2017-10-06T20:04:41.610Z,13.83
2017-10-06T20:07:09.045Z,14.40
2017-10-06T20:09:36.463Z,21.23
2017-10-06T20:12:03.895Z,18.97
2017-10-06T20:14:31.287Z,14.90
2017-10-06T20:16:58.709Z,14.47
2017-10-06T20:19:26.111Z,14.17
2017-10-06T20:21:53.527Z,14.57
2017-10-06T20:24:21.028Z,14.47
2017-10-06T20:26:48.480Z,15.13
2017-10-06T20:29:15.901Z,16.13
2017-10-06T20:31:44.127Z,18.10
2017-10-06T20:34:11.700Z,14.10
2017-10-06T20:36:39.087Z,13.33
2017-10-06T20:39:06.512Z,15.73
2017-10-06T20:41:33.923Z,15.00
2017-10-06T20:44:01.327Z,15.20
2017-10-06T20:46:28.739Z,15.73
2017-10-06T20:48:56.160Z,18.90
2017-10-06T20:51:23.587Z,13.70
2017-10-06T20:53:51.023Z,13.63
2017-10-06T20:56:18.462Z,13.67
2017-10-06T20:58:45.867Z,14.33
2017-10-06T21:01:13.279Z,15.43
2017-10-06T21:03:40.695Z,17.20
2017-10-06T21:06:08.106Z,18.33
2017-10-06T21:08:35.531Z,14.53
2017-10-06T21:11:02.939Z,15.70
2017-10-06T21:13:30.355Z,15.07
2017-10-06T21:15:57.781Z,15.80
2017-10-06T21:18:25.184Z,15.83
2017-10-06T21:20:52.632Z,18.37
2017-10-06T21:23:20.024Z,16.00
2017-10-06T21:25:47.458Z,17.00
2017-10-06T21:28:14.863Z,16.33
2017-10-06T21:30:42.265Z,15.70
2017-10-06T21:33:09.691Z,15.27
2017-10-06T21:35:37.116Z,16.93
2017-10-06T21:38:04.515Z,16.20
2017-10-06T21:40:32.011Z,16.80
2017-10-06T21:42:59.407Z,21.90
2017-10-06T21:45:26.808Z,19.10
2017-10-06T21:47:54.220Z,15.43
2017-10-06T21:50:21.627Z,16.73
2017-10-06T21:52:49.028Z,16.43
2017-10-06T21:55:16.445Z,16.20
2017-10-06T21:57:43.846Z,17.03
2017-10-06T22:00:11.243Z,16.03
2017-10-06T22:02:38.670Z,17.10
2017-10-06T22:05:06.059Z,16.10
2017-10-06T22:07:33.461Z,14.60
2017-10-06T22:10:00.884Z,16.03
2017-10-06T22:12:28.291Z,15.40
2017-10-06T22:14:55.704Z,18.63
2017-10-06T22:17:23.116Z,17.83
2017-10-06T22:19:50.519Z,15.83
2017-10-06T22:22:17.928Z,15.20
2017-10-06T22:24:45.347Z,14.43
2017-10-06T22:27:12.755Z,17.73
2017-10-06T22:29:40.159Z,16.37
2017-10-06T22:32:07.641Z,18.07
2017-10-06T22:34:35.043Z,21.23
2017-10-06T22:37:02.456Z,15.57
2017-10-06T22:39:29.876Z,17.40
2017-10-06T22:41:57.274Z,17.17
2017-10-06T22:44:24.678Z,18.53
2017-10-06T22:46:52.097Z,21.33
2017-10-06T22:49:19.494Z,16.37
2017-10-06T22:51:46.899Z,18.57
2017-10-06T22:54:14.317Z,16.93
2017-10-06T22:56:41.711Z,18.17
2017-10-06T22:59:09.131Z,17.53
2017-10-06T23:01:36.531Z,18.93
2017-10-06T23:04:03.936Z,17.53
2017-10-06T23:06:31.328Z,17.20
2017-10-06T23:08:58.744Z,17.77
2017-10-06T23:11:26.143Z,16.90
2017-10-06T23:13:53.556Z,24.93
2017-10-06T23:16:20.968Z,17.53
2017-10-06T23:18:48.375Z,17.37
2017-10-06T23:21:15.771Z,17.53
2017-10-06T23:23:43.194Z,16.17
2017-10-06T23:26:11.319Z,19.00
2017-10-06T23:28:38.732Z,17.67
2017-10-06T23:31:06.290Z,18.47
2017-10-06T23:33:33.691Z,18.07
2017-10-06T23:36:01.095Z,26.53
2017-10-06T23:38:28.503Z,21.97
2017-10-06T23:40:55.899Z,17.37
2017-10-06T23:43:23.302Z,17.07
2017-10-06T23:45:50.710Z,17.73
2017-10-06T23:48:18.123Z,20.80
2017-10-06T23:50:45.518Z,18.17
2017-10-06T23:53:12.942Z,17.83
2017-10-06T23:55:40.341Z,17.67
2017-10-06T23:58:07.738Z,17.50
